createdAt,value
2022-10-19T04:16:54.758Z,13.45
2022-10-19T04:19:21.206Z,10.15
2022-10-19T04:21:49.059Z,16.50
2022-10-19T04:24:18.315Z,10.77
2022-10-19T04:26:48.120Z,16.88
2022-10-19T04:29:19.849Z,9.23
2022-10-19T04:31:49.367Z,10.80
2022-10-19T04:34:16.998Z,11.77
2022-10-19T04:36:58.206Z,14.63
2022-10-19T04:39:25.228Z,17.27
2022-10-19T04:41:54.656Z,10.55
2022-10-19T04:44:26.620Z,12.95
2022-10-19T04:46:58.526Z,17.00
2022-10-19T04:49:32.569Z,13.73
2022-10-19T04:52:00.428Z,12.68
2022-10-19T04:54:37.858Z,10.13
2022-10-19T04:57:10.102Z,11.05
2022-10-19T04:59:36.727Z,11.05
2022-10-19T05:02:03.565Z,8.68
2022-10-19T05:04:32.853Z,12.43
2022-10-19T05:07:05.499Z,14.02
2022-10-19T05:09:32.141Z,11.23
2022-10-19T05:11:59.708Z,11.02
2022-10-19T05:14:29.390Z,11.65
2022-10-19T05:17:41.033Z,11.40
2022-10-19T05:20:08.556Z,17.05
2022-10-19T05:22:50.033Z,10.43
2022-10-19T05:25:16.931Z,13.23
2022-10-19T05:27:51.254Z,14.35
2022-10-19T05:30:28.303Z,12.02
2022-10-19T05:33:02.712Z,11.18
2022-10-19T05:35:29.677Z,14.02
2022-10-19T05:37:56.403Z,11.32
2022-10-19T05:40:32.477Z,16.00
2022-10-19T05:43:05.447Z,14.30
2022-10-19T05:45:53.721Z,18.30
2022-10-19T05:48:35.483Z,13.05
2022-10-19T05:51:09.122Z,15.80
2022-10-19T05:56:17.826Z,20.13
2022-10-19T05:58:47.903Z,17.25
2022-10-19T06:01:33.390Z,16.38
2022-10-19T06:04:08.641Z,17.73
2022-10-19T06:06:39.119Z,20.15
2022-10-19T06:09:13.556Z,12.25
2022-10-19T06:11:49.357Z,17.77
2022-10-19T06:14:25.478Z,17.55
2022-10-19T06:16:56.491Z,12.02
2022-10-19T06:19:29.811Z,14.05
2022-10-19T06:22:19.539Z,18.17
2022-10-19T06:24:56.150Z,12.18
2022-10-19T06:27:26.281Z,17.38
2022-10-19T06:29:55.922Z,14.40
2022-10-19T06:32:29.328Z,10.32
2022-10-19T06:35:17.964Z,11.82
2022-10-19T06:37:48.189Z,20.27
2022-10-19T06:40:29.097Z,18.80
2022-10-19T06:43:11.463Z,12.05
2022-10-19T06:45:49.366Z,19.15
2022-10-19T06:48:25.308Z,16.27
2022-10-19T06:51:05.901Z,7.63
2022-10-19T06:53:36.086Z,12.63
2022-10-19T06:56:13.786Z,10.80
2022-10-19T06:58:43.768Z,12.77
2022-10-19T07:01:22.130Z,12.77
2022-10-19T07:03:58.155Z,12.48
2022-10-19T07:06:35.732Z,7.70
2022-10-19T07:09:02.882Z,7.60
2022-10-19T07:11:29.475Z,9.65
2022-10-19T07:13:57.374Z,7.05
2022-10-19T07:16:26.211Z,9.68
2022-10-19T07:18:53.564Z,15.40
2022-10-19T07:21:25.521Z,9.55
2022-10-19T07:23:55.092Z,11.30
2022-10-19T07:26:28.270Z,10.95
2022-10-19T07:28:58.297Z,8.48
2022-10-19T07:31:26.806Z,7.03
2022-10-19T07:33:56.785Z,7.47
2022-10-19T07:36:24.860Z,9.45
2022-10-19T07:38:53.110Z,10.30
2022-10-19T07:41:22.325Z,10.02
2022-10-19T07:43:50.592Z,10.93
2022-10-19T07:46:20.238Z,9.88
2022-10-19T07:48:47.609Z,10.15
2022-10-19T07:51:19.124Z,9.07
2022-10-19T07:53:49.679Z,8.00
2022-10-19T07:56:31.427Z,6.95
2022-10-19T07:59:00.452Z,4.63
2022-10-19T08:01:36.602Z,4.78
2022-10-19T08:06:55.301Z,7.70
2022-10-19T08:09:54.647Z,6.53
2022-10-19T08:12:15.626Z,8.55
2022-10-19T08:14:45.610Z,11.70
2022-10-19T08:17:16.794Z,7.53
2022-10-19T08:19:44.940Z,5.88
2022-10-19T08:22:13.842Z,8.00
2022-10-19T08:24:40.720Z,4.53
2022-10-19T08:27:07.910Z,5.53
2022-10-19T08:29:35.580Z,8.00
2022-10-19T08:32:04.013Z,7.40
2022-10-19T08:34:32.100Z,6.28
2022-10-19T08:37:15.004Z,7.70
2022-10-19T08:39:52.867Z,8.27
2022-10-19T08:42:36.202Z,7.05
2022-10-19T08:45:20.700Z,7.45
2022-10-19T08:48:10.350Z,5.25
2022-10-19T08:50:44.024Z,5.60
2022-10-19T08:53:22.593Z,4.78
2022-10-19T08:56:32.539Z,6.43
2022-10-19T08:59:20.308Z,5.40
2022-10-19T09:01:54.435Z,7.40
2022-10-19T09:04:36.763Z,4.95
2022-10-19T09:07:23.699Z,7.38
2022-10-19T09:10:13.503Z,12.13
2022-10-19T09:13:24.981Z,7.93
2022-10-19T09:15:56.053Z,10.02
2022-10-19T09:18:30.966Z,7.45
2022-10-19T09:21:22.683Z,8.73
2022-10-19T09:24:09.308Z,8.45
2022-10-19T09:26:52.941Z,7.00
2022-10-19T09:29:49.627Z,5.80
2022-10-19T09:32:35.904Z,7.78
2022-10-19T09:35:18.950Z,8.13
2022-10-19T09:37:51.378Z,4.47
2022-10-19T09:40:28.046Z,8.02
2022-10-19T09:43:03.634Z,8.88
2022-10-19T09:45:45.674Z,5.65
2022-10-19T09:48:22.075Z,10.48
2022-10-19T09:51:18.601Z,8.50
2022-10-19T09:53:56.695Z,7.68
2022-10-19T09:56:28.135Z,7.38
2022-10-19T09:59:01.120Z,4.80
2022-10-19T10:02:17.629Z,7.37
2022-10-19T10:04:58.750Z,6.07
2022-10-19T10:07:40.679Z,11.85
2022-10-19T10:10:20.489Z,5.95
2022-10-19T10:13:01.672Z,11.80
2022-10-19T10:15:39.802Z,11.82
2022-10-19T10:18:08.671Z,7.03
2022-10-19T10:20:35.911Z,8.80
2022-10-19T10:23:08.276Z,9.57
2022-10-19T10:25:39.197Z,9.35
2022-10-19T10:28:19.956Z,8.07
2022-10-19T10:30:55.934Z,11.07
2022-10-19T10:34:12.128Z,7.55
2022-10-19T10:36:53.619Z,8.98
2022-10-19T10:39:25.047Z,11.73
2022-10-19T10:41:52.543Z,7.13
2022-10-19T10:44:23.380Z,7.90
2022-10-19T10:47:06.057Z,7.57
2022-10-19T10:49:43.448Z,9.43
2022-10-19T10:52:16.361Z,8.02
2022-10-19T10:55:09.089Z,7.23
2022-10-19T10:57:46.154Z,8.18
2022-10-19T11:00:19.651Z,11.93
2022-10-19T11:02:50.501Z,7.03
2022-10-19T11:05:29.332Z,5.57
2022-10-19T11:08:05.915Z,5.50
2022-10-19T11:10:46.440Z,9.38
2022-10-19T11:13:34.926Z,6.70
2022-10-19T11:16:18.847Z,5.65
2022-10-19T11:18:54.048Z,6.85
2022-10-19T11:21:39.595Z,12.45
2022-10-19T11:25:11.365Z,13.30
2022-10-19T11:28:04.399Z,7.88
2022-10-19T11:30:43.908Z,9.45
2022-10-19T11:33:37.434Z,6.03
2022-10-19T11:36:18.618Z,8.40
2022-10-19T11:39:01.820Z,8.20
2022-10-19T11:41:41.477Z,6.63
2022-10-19T11:44:48.254Z,7.53
2022-10-19T11:47:21.495Z,5.50
2022-10-19T11:52:51.069Z,11.77
2022-10-19T11:55:37.721Z,8.85
2022-10-19T11:58:23.383Z,7.18
2022-10-19T12:01:25.350Z,9.48
2022-10-19T12:04:11.423Z,6.90
2022-10-19T12:07:05.728Z,6.90
2022-10-19T12:09:37.098Z,9.38
2022-10-19T12:12:18.220Z,9.75
2022-10-19T12:14:51.990Z,4.72
2022-10-19T12:17:32.969Z,7.70
2022-10-19T12:20:14.884Z,6.32
2022-10-19T12:22:46.496Z,9.13
2022-10-19T12:25:17.789Z,6.80
2022-10-19T12:27:47.881Z,8.52
2022-10-19T12:30:28.583Z,7.68
2022-10-19T12:33:25.397Z,6.75
2022-10-19T12:36:18.091Z,8.05
2022-10-19T12:38:50.937Z,7.47
2022-10-19T12:41:31.412Z,6.47
2022-10-19T12:44:29.751Z,5.10
2022-10-19T12:47:10.219Z,9.88
2022-10-19T12:49:48.926Z,6.05
2022-10-19T12:52:49.020Z,6.97
2022-10-19T12:55:15.710Z,6.15
2022-10-19T12:57:58.146Z,5.15
2022-10-19T13:00:29.056Z,5.43
2022-10-19T13:03:24.974Z,9.45
2022-10-19T13:06:20.663Z,8.23
2022-10-19T13:09:01.499Z,7.25
2022-10-19T13:11:31.108Z,8.90
2022-10-19T13:14:45.747Z,8.38
2022-10-19T13:17:49.990Z,7.88
2022-10-19T13:20:24.912Z,7.18
2022-10-19T13:23:12.103Z,4.60
2022-10-19T13:25:45.536Z,4.88
2022-10-19T13:28:15.560Z,4.40
2022-10-19T13:30:54.615Z,6.27
2022-10-19T13:33:31.181Z,6.68
2022-10-19T13:36:05.796Z,9.82
2022-10-19T13:38:50.571Z,5.85
2022-10-19T13:41:25.696Z,5.10
2022-10-19T13:43:58.333Z,5.45
2022-10-19T13:50:28.272Z,5.38
2022-10-19T13:53:16.655Z,4.78
2022-10-19T13:56:15.199Z,4.25
2022-10-19T13:59:02.845Z,5.13
2022-10-19T14:02:02.390Z,5.32
2022-10-19T14:04:59.754Z,8.98
2022-10-19T14:07:38.682Z,5.00
2022-10-19T14:10:17.544Z,3.95
2022-10-19T14:12:46.201Z,4.47
2022-10-19T14:15:28.102Z,3.67
2022-10-19T14:17:56.181Z,6.10
2022-10-19T14:21:21.040Z,5.40
2022-10-19T14:26:19.562Z,3.70
2022-10-19T14:28:53.231Z,8.50
2022-10-19T14:31:49.730Z,3.97
2022-10-19T14:34:19.231Z,3.33
2022-10-19T14:36:56.905Z,4.70
2022-10-19T14:39:32.286Z,3.53
2022-10-19T14:42:09.946Z,3.80
2022-10-19T14:45:12.138Z,3.65
2022-10-19T14:47:59.550Z,4.30
2022-10-19T14:50:43.098Z,5.95
2022-10-19T14:53:22.804Z,4.55
2022-10-19T14:55:58.807Z,4.93
2022-10-19T14:58:36.379Z,3.08
2022-10-19T15:01:06.771Z,3.10
2022-10-19T15:03:33.942Z,3.97
2022-10-19T15:06:04.333Z,5.82
2022-10-19T15:08:40.200Z,3.42
2022-10-19T15:11:09.556Z,4.50
2022-10-19T15:13:42.310Z,5.25
2022-10-19T15:16:42.025Z,2.63
2022-10-19T15:19:24.208Z,6.53
2022-10-19T15:22:38.120Z,4.70
2022-10-19T15:25:07.307Z,3.50
2022-10-19T15:27:36.764Z,3.45
2022-10-19T15:30:22.521Z,9.38
2022-10-19T15:33:02.587Z,3.58
2022-10-19T15:35:30.315Z,2.90
2022-10-19T15:38:15.465Z,3.85
2022-10-19T15:40:44.082Z,4.57
2022-10-19T15:43:33.626Z,3.88
2022-10-19T15:46:05.128Z,5.35
2022-10-19T15:48:41.136Z,8.35
2022-10-19T15:51:26.228Z,3.97
2022-10-19T15:54:04.847Z,4.93
2022-10-19T15:56:34.995Z,5.43
2022-10-19T15:59:04.369Z,6.10
2022-10-19T16:01:35.305Z,4.60
2022-10-19T16:04:08.878Z,3.55
2022-10-19T16:06:40.940Z,4.30
2022-10-19T16:09:14.291Z,8.50
2022-10-19T16:11:57.549Z,5.00
2022-10-19T16:14:28.431Z,8.50
2022-10-19T16:16:55.809Z,5.32
2022-10-19T16:19:45.824Z,8.95
2022-10-19T16:22:16.094Z,8.50
2022-10-19T16:24:42.938Z,7.90
2022-10-19T16:27:09.472Z,9.35
2022-10-19T16:29:35.965Z,6.90
2022-10-19T16:32:02.518Z,8.57
2022-10-19T16:34:29.077Z,8.88
2022-10-19T16:36:55.543Z,5.97
2022-10-19T16:39:22.206Z,5.45
2022-10-19T16:41:52.244Z,6.43
2022-10-19T16:44:18.684Z,6.57
2022-10-19T16:46:45.214Z,8.02
2022-10-19T16:49:11.663Z,10.32
2022-10-19T16:51:41.788Z,11.57
2022-10-19T16:54:10.775Z,8.95
2022-10-19T16:56:44.602Z,10.25
2022-10-19T17:01:40.670Z,6.85
2022-10-19T17:04:07.191Z,7.95
2022-10-19T17:06:34.216Z,6.80
2022-10-19T17:11:47.179Z,10.07
2022-10-19T17:14:13.762Z,8.65
2022-10-19T17:16:40.568Z,8.32
2022-10-19T17:19:08.335Z,8.65
2022-10-19T17:21:39.745Z,6.82
2022-10-19T17:24:08.355Z,8.90
2022-10-19T17:26:38.548Z,15.82
2022-10-19T17:29:06.404Z,9.75
2022-10-19T17:31:33.136Z,8.48
2022-10-19T17:34:00.722Z,9.40
2022-10-19T17:36:30.180Z,9.25
2022-10-19T17:39:02.054Z,8.30
2022-10-19T17:41:29.208Z,7.90
2022-10-19T17:43:56.768Z,10.38
2022-10-19T17:46:26.530Z,9.52
2022-10-19T17:48:53.774Z,10.30
2022-10-19T17:51:32.400Z,10.40
2022-10-19T17:54:11.458Z,9.90
2022-10-19T17:56:54.340Z,8.02
2022-10-19T17:59:30.176Z,11.85
2022-10-19T18:02:02.394Z,10.90
2022-10-19T18:04:28.954Z,8.95
2022-10-19T18:06:58.743Z,17.48
2022-10-19T18:09:25.320Z,9.82
2022-10-19T18:11:51.776Z,10.95
2022-10-19T18:15:14.171Z,8.48
2022-10-19T18:17:40.724Z,11.02
2022-10-19T18:20:07.995Z,8.85
2022-10-19T18:22:34.653Z,9.40
2022-10-19T18:25:01.475Z,9.52
2022-10-19T18:27:28.202Z,10.10
2022-10-19T18:29:54.628Z,7.97
2022-10-19T18:32:21.118Z,15.15
2022-10-19T18:34:47.700Z,8.95
2022-10-19T18:37:14.134Z,9.43
2022-10-19T18:39:40.740Z,10.73
2022-10-19T18:42:07.196Z,10.20
2022-10-19T18:44:33.910Z,11.73
2022-10-19T18:47:00.434Z,8.70
2022-10-19T18:49:27.022Z,9.90
2022-10-19T18:51:55.565Z,8.48
2022-10-19T18:54:29.060Z,10.52
2022-10-19T18:56:55.625Z,11.05
2022-10-19T18:59:22.749Z,12.90
2022-10-19T19:01:49.320Z,8.65
2022-10-19T19:04:15.821Z,9.73
2022-10-19T19:06:42.409Z,9.35
2022-10-19T19:09:11.450Z,10.38
2022-10-19T19:11:40.700Z,14.75
2022-10-19T19:14:12.077Z,11.50
2022-10-19T19:16:39.482Z,11.18
2022-10-19T19:19:06.322Z,8.40
2022-10-19T19:21:36.291Z,12.38
2022-10-19T19:24:05.903Z,9.75
2022-10-19T19:26:37.663Z,8.40
2022-10-19T19:29:04.510Z,9.82
2022-10-19T19:31:31.495Z,11.38
2022-10-19T19:34:00.960Z,10.63
2022-10-19T19:36:27.985Z,13.70
2022-10-19T19:38:56.564Z,9.57
2022-10-19T19:41:23.105Z,10.13
2022-10-19T19:43:51.701Z,8.90
2022-10-19T19:51:37.369Z,11.65
2022-10-19T19:54:11.174Z,11.48
2022-10-19T19:56:39.205Z,9.88
2022-10-19T19:59:05.729Z,10.50
2022-10-19T20:01:32.880Z,11.10
2022-10-19T20:06:30.967Z,9.38
2022-10-19T20:08:57.615Z,10.82
2022-10-19T20:11:43.832Z,8.52
2022-10-19T20:14:11.608Z,10.82
2022-10-19T20:16:38.141Z,9.20
2022-10-19T20:19:10.858Z,7.50
2022-10-19T20:21:38.133Z,7.85
2022-10-19T20:24:05.080Z,8.93
2022-10-19T20:26:32.052Z,10.02
2022-10-19T20:28:58.806Z,11.30
2022-10-19T20:31:25.597Z,9.60
2022-10-19T20:33:52.252Z,7.25
2022-10-19T20:36:21.623Z,10.52
2022-10-19T20:38:56.539Z,8.25
2022-10-19T20:41:26.118Z,9.85
2022-10-19T20:43:53.828Z,11.00
2022-10-19T20:46:24.005Z,8.05
2022-10-19T20:48:51.405Z,9.73
2022-10-19T20:51:20.822Z,11.52
2022-10-19T20:53:50.521Z,8.93
2022-10-19T20:56:21.584Z,10.18
2022-10-19T20:58:50.217Z,11.70
2022-10-19T21:01:18.585Z,10.50
2022-10-19T21:03:47.239Z,7.90
2022-10-19T21:06:14.038Z,6.50
2022-10-19T21:08:40.701Z,16.08
2022-10-19T21:11:19.659Z,14.27
2022-10-19T21:13:47.326Z,10.50
2022-10-19T21:16:16.101Z,9.95
2022-10-19T21:18:43.797Z,9.52
2022-10-19T21:21:22.533Z,9.18
2022-10-19T21:23:54.044Z,8.20
2022-10-19T21:26:20.601Z,9.10
2022-10-19T21:28:48.671Z,11.02
2022-10-19T21:31:16.769Z,12.18
2022-10-19T21:33:43.853Z,8.27
2022-10-19T21:36:11.517Z,6.65
2022-10-19T21:38:38.438Z,7.32
2022-10-19T21:41:11.867Z,8.55
2022-10-19T21:43:38.350Z,8.02
2022-10-19T21:46:07.216Z,11.07
2022-10-19T21:48:34.351Z,9.60
2022-10-19T21:51:12.824Z,15.18
2022-10-19T21:53:39.246Z,6.82
2022-10-19T21:56:05.909Z,6.63
2022-10-19T21:58:32.362Z,7.63
